logo
Rechercher aéroport 
image banner adimage banner adimage banner ad
image banner ad

CA38 - Totem Pole Ranch

Situé à Calpine, United States

ICAO - CA38, IATA -

Données fournies par Airmate  

Information générale

Coordonnées: N39°39'5" W120°26'19"
Élévation : 4986 feet MSL.
Variation magnétique : 16° East
Voir autres Aéroports à California

Données opérationnelles

Special qualification required
Heure actuelle UTC:
Heure actuelle locale:
Météo à : KTRK - Truckee-Tahoe ( 45 km )
METAR: KTRK 281158Z AUTO 00000KT 10SM CLR 02/M02 A3025 RMK AO2
TAF: KTRK 281120Z 2812/2912 VRB03KT P6SM SCT180 WS020/23035KT FM281500 20010G18KT P6SM SCT200 FM281900 22017G27KT P6SM SCT200 FM290200 19008KT P6SM BKN200 WS020/22035KT
Voir NOTAMs / SUP AIP / TFR affectant cet aéroport [VIEW]
Fréquences de communication: [VIEW]

Pistes:

Identifiant RWYQFULongueur (ft)Largeur (ft)SurfaceLDA (ft)
021800100EARTH
201800100EARTH

Coordonnées de l'aéroport

Adresse: Calpine United States

Vue satellite de CA38